sensor_id;sensor_type;location;lat;lon;timestamp;P1;durP1;ratioP1;P2;durP2;ratioP2
6951;SDS011;3515;50.138;8.502;2022-09-02T00:00:48;2;;;0;;
6951;SDS011;3515;50.138;8.502;2022-09-02T00:03:12;2;;;0;;
6951;SDS011;3515;50.138;8.502;2022-09-02T00:05:38;2;;;0;;
6951;SDS011;3515;50.138;8.502;2022-09-02T00:08:03;2;;;0;;
6951;SDS011;3515;50.138;8.502;2022-09-02T00:10:28;2;;;0;;
6951;SDS011;3515;50.138;8.502;2022-09-02T00:12:53;2;;;0;;
6951;SDS011;3515;50.138;8.502;2022-09-02T00:15:19;2;;;0;;
6951;SDS011;3515;50.138;8.502;2022-09-02T00:17:44;3;;;0;;
6951;SDS011;3515;50.138;8.502;2022-09-02T00:20:09;3;;;0;;
6951;SDS011;3515;50.138;8.502;2022-09-02T00:22:34;3;;;0;;
6951;SDS011;3515;50.138;8.502;2022-09-02T00:25:00;3;;;0;;
6951;SDS011;3515;50.138;8.502;2022-09-02T00:27:25;3;;;0;;
6951;SDS011;3515;50.138;8.502;2022-09-02T00:29:50;3;;;0;;
6951;SDS011;3515;50.138;8.502;2022-09-02T00:32:15;3;;;0;;
6951;SDS011;3515;50.138;8.502;2022-09-02T00:34:41;3;;;0;;
6951;SDS011;3515;50.138;8.502;2022-09-02T00:37:06;2;;;0;;
6951;SDS011;3515;50.138;8.502;2022-09-02T00:39:31;2;;;0;;
6951;SDS011;3515;50.138;8.502;2022-09-02T00:41:57;2;;;0;;
6951;SDS011;3515;50.138;8.502;2022-09-02T00:44:22;2;;;0;;
6951;SDS011;3515;50.138;8.502;2022-09-02T00:46:47;2;;;0;;
6951;SDS011;3515;50.138;8.502;2022-09-02T00:49:13;2;;;0;;
6951;SDS011;3515;50.138;8.502;2022-09-02T00:51:38;3;;;0;;
6951;SDS011;3515;50.138;8.502;2022-09-02T00:54:03;3;;;0;;
6951;SDS011;3515;50.138;8.502;2022-09-02T00:56:28;3;;;0;;
6951;SDS011;3515;50.138;8.502;2022-09-02T00:58:54;3;;;0;;
6951;SDS011;3515;50.138;8.502;2022-09-02T01:01:23;3;;;0;;
6951;SDS011;3515;50.138;8.502;2022-09-02T01:03:49;3;;;0;;
6951;SDS011;3515;50.138;8.502;2022-09-02T01:06:14;2;;;0;;
6951;SDS011;3515;50.138;8.502;2022-09-02T01:08:40;2;;;0;;
6951;SDS011;3515;50.138;8.502;2022-09-02T01:11:04;2;;;0;;
6951;SDS011;3515;50.138;8.502;2022-09-02T01:13:30;2;;;0;;
6951;SDS011;3515;50.138;8.502;2022-09-02T01:15:55;2;;;0;;
6951;SDS011;3515;50.138;8.502;2022-09-02T01:18:21;2;;;0;;
6951;SDS011;3515;50.138;8.502;2022-09-02T01:20:45;2;;;0;;
6951;SDS011;3515;50.138;8.502;2022-09-02T01:23:11;2;;;0;;
6951;SDS011;3515;50.138;8.502;2022-09-02T01:25:36;2;;;0;;
6951;SDS011;3515;50.138;8.502;2022-09-02T01:28:02;2;;;0;;
6951;SDS011;3515;50.138;8.502;2022-09-02T01:30:26;3;;;0;;
6951;SDS011;3515;50.138;8.502;2022-09-02T01:32:52;3;;;0;;
6951;SDS011;3515;50.138;8.502;2022-09-02T01:35:17;3;;;0;;
6951;SDS011;3515;50.138;8.502;2022-09-02T01:37:42;2;;;0;;
6951;SDS011;3515;50.138;8.502;2022-09-02T01:40:08;3;;;0;;
6951;SDS011;3515;50.138;8.502;2022-09-02T01:42:32;3;;;0;;
6951;SDS011;3515;50.138;8.502;2022-09-02T01:44:58;3;;;0;;
6951;SDS011;3515;50.138;8.502;2022-09-02T01:47:24;2;;;0;;
6951;SDS011;3515;50.138;8.502;2022-09-02T01:49:49;2;;;0;;
6951;SDS011;3515;50.138;8.502;2022-09-02T01:52:14;2;;;0;;
6951;SDS011;3515;50.138;8.502;2022-09-02T01:54:39;2;;;0;;
6951;SDS011;3515;50.138;8.502;2022-09-02T01:57:05;2;;;0;;
6951;SDS011;3515;50.138;8.502;2022-09-02T01:59:30;2;;;0;;
6951;SDS011;3515;50.138;8.502;2022-09-02T02:01:55;2;;;0;;
6951;SDS011;3515;50.138;8.502;2022-09-02T02:04:20;2;;;0;;
6951;SDS011;3515;50.138;8.502;2022-09-02T02:06:46;2;;;0;;
6951;SDS011;3515;50.138;8.502;2022-09-02T02:09:11;2;;;0;;
6951;SDS011;3515;50.138;8.502;2022-09-02T02:11:36;2;;;0;;
6951;SDS011;3515;50.138;8.502;2022-09-02T02:14:01;2;;;0;;
6951;SDS011;3515;50.138;8.502;2022-09-02T02:16:30;2;;;0;;
6951;SDS011;3515;50.138;8.502;2022-09-02T02:18:55;2;;;0;;
6951;SDS011;3515;50.138;8.502;2022-09-02T02:21:21;2;;;0;;
6951;SDS011;3515;50.138;8.502;2022-09-02T02:23:46;2;;;0;;
6951;SDS011;3515;50.138;8.502;2022-09-02T02:26:11;4;;;1;;
6951;SDS011;3515;50.138;8.502;2022-09-02T02:28:37;5;;;1;;
6951;SDS011;3515;50.138;8.502;2022-09-02T02:31:02;5;;;1;;
6951;SDS011;3515;50.138;8.502;2022-09-02T02:33:27;7;;;2;;
6951;SDS011;3515;50.138;8.502;2022-09-02T02:35:52;7;;;3;;
6951;SDS011;3515;50.138;8.502;2022-09-02T02:38:18;9;;;4;;
6951;SDS011;3515;50.138;8.502;2022-09-02T02:40:43;9;;;4;;
6951;SDS011;3515;50.138;8.502;2022-09-02T02:43:08;11;;;5;;
6951;SDS011;3515;50.138;8.502;2022-09-02T02:45:34;12;;;5;;
6951;SDS011;3515;50.138;8.502;2022-09-02T02:47:59;15;;;7;;
6951;SDS011;3515;50.138;8.502;2022-09-02T02:50:24;15;;;7;;
6951;SDS011;3515;50.138;8.502;2022-09-02T02:52:51;15;;;7;;
6951;SDS011;3515;50.138;8.502;2022-09-02T02:55:15;15;;;7;;
6951;SDS011;3515;50.138;8.502;2022-09-02T02:57:41;15;;;7;;
6951;SDS011;3515;50.138;8.502;2022-09-02T03:00:07;18;;;9;;
6951;SDS011;3515;50.138;8.502;2022-09-02T03:02:31;18;;;10;;
6951;SDS011;3515;50.138;8.502;2022-09-02T03:04:56;17;;;8;;
6951;SDS011;3515;50.138;8.502;2022-09-02T03:07:22;16;;;8;;
6951;SDS011;3515;50.138;8.502;2022-09-02T03:09:47;16;;;8;;
6951;SDS011;3515;50.138;8.502;2022-09-02T03:12:12;16;;;8;;
6951;SDS011;3515;50.138;8.502;2022-09-02T03:14:38;18;;;8;;
6951;SDS011;3515;50.138;8.502;2022-09-02T03:17:03;16;;;7;;
6951;SDS011;3515;50.138;8.502;2022-09-02T03:19:28;15;;;6;;
6951;SDS011;3515;50.138;8.502;2022-09-02T03:21:54;13;;;4;;
6951;SDS011;3515;50.138;8.502;2022-09-02T03:24:19;14;;;6;;
6951;SDS011;3515;50.138;8.502;2022-09-02T03:26:45;14;;;6;;
6951;SDS011;3515;50.138;8.502;2022-09-02T03:29:10;17;;;8;;
6951;SDS011;3515;50.138;8.502;2022-09-02T03:31:35;15;;;6;;
6951;SDS011;3515;50.138;8.502;2022-09-02T03:34:00;15;;;8;;
6951;SDS011;3515;50.138;8.502;2022-09-02T03:36:28;15;;;8;;
6951;SDS011;3515;50.138;8.502;2022-09-02T03:38:54;16;;;8;;
6951;SDS011;3515;50.138;8.502;2022-09-02T03:41:19;18;;;9;;
6951;SDS011;3515;50.138;8.502;2022-09-02T03:43:45;19;;;10;;
6951;SDS011;3515;50.138;8.502;2022-09-02T03:46:10;16;;;8;;
6951;SDS011;3515;50.138;8.502;2022-09-02T03:48:35;15;;;8;;
6951;SDS011;3515;50.138;8.502;2022-09-02T03:51:01;15;;;8;;
6951;SDS011;3515;50.138;8.502;2022-09-02T03:53:26;14;;;8;;
6951;SDS011;3515;50.138;8.502;2022-09-02T03:55:51;17;;;9;;
6951;SDS011;3515;50.138;8.502;2022-09-02T03:58:17;17;;;10;;
6951;SDS011;3515;50.138;8.502;2022-09-02T04:00:42;15;;;8;;
6951;SDS011;3515;50.138;8.502;2022-09-02T04:03:07;14;;;8;;
6951;SDS011;3515;50.138;8.502;2022-09-02T04:05:33;14;;;8;;
6951;SDS011;3515;50.138;8.502;2022-09-02T04:07:58;12;;;6;;
6951;SDS011;3515;50.138;8.502;2022-09-02T04:10:23;12;;;6;;
6951;SDS011;3515;50.138;8.502;2022-09-02T04:12:49;12;;;6;;
6951;SDS011;3515;50.138;8.502;2022-09-02T04:15:14;9;;;4;;
6951;SDS011;3515;50.138;8.502;2022-09-02T04:17:40;9;;;4;;
6951;SDS011;3515;50.138;8.502;2022-09-02T04:20:06;9;;;4;;
6951;SDS011;3515;50.138;8.502;2022-09-02T04:22:30;9;;;4;;
6951;SDS011;3515;50.138;8.502;2022-09-02T04:24:55;9;;;4;;
6951;SDS011;3515;50.138;8.502;2022-09-02T04:27:20;9;;;4;;
6951;SDS011;3515;50.138;8.502;2022-09-02T04:29:45;9;;;4;;
6951;SDS011;3515;50.138;8.502;2022-09-02T04:32:11;9;;;4;;
6951;SDS011;3515;50.138;8.502;2022-09-02T04:34:36;9;;;4;;
6951;SDS011;3515;50.138;8.502;2022-09-02T04:37:01;8;;;4;;
6951;SDS011;3515;50.138;8.502;2022-09-02T04:39:27;8;;;4;;
6951;SDS011;3515;50.138;8.502;2022-09-02T04:41:52;8;;;3;;
6951;SDS011;3515;50.138;8.502;2022-09-02T04:44:17;7;;;3;;
6951;SDS011;3515;50.138;8.502;2022-09-02T04:46:43;9;;;5;;
6951;SDS011;3515;50.138;8.502;2022-09-02T04:49:08;9;;;5;;
6951;SDS011;3515;50.138;8.502;2022-09-02T04:51:33;10;;;5;;
6951;SDS011;3515;50.138;8.502;2022-09-02T04:53:59;10;;;5;;
6951;SDS011;3515;50.138;8.502;2022-09-02T04:56:25;9;;;5;;
6951;SDS011;3515;50.138;8.502;2022-09-02T04:58:49;9;;;5;;
6951;SDS011;3515;50.138;8.502;2022-09-02T05:01:15;10;;;5;;
6951;SDS011;3515;50.138;8.502;2022-09-02T05:03:40;10;;;5;;
6951;SDS011;3515;50.138;8.502;2022-09-02T05:06:06;10;;;5;;
6951;SDS011;3515;50.138;8.502;2022-09-02T05:08:31;10;;;5;;
6951;SDS011;3515;50.138;8.502;2022-09-02T05:10:56;8;;;4;;
6951;SDS011;3515;50.138;8.502;2022-09-02T05:13:21;10;;;5;;
6951;SDS011;3515;50.138;8.502;2022-09-02T05:15:46;8;;;4;;
6951;SDS011;3515;50.138;8.502;2022-09-02T05:18:12;11;;;5;;
6951;SDS011;3515;50.138;8.502;2022-09-02T05:20:37;8;;;4;;
6951;SDS011;3515;50.138;8.502;2022-09-02T05:23:02;10;;;5;;
6951;SDS011;3515;50.138;8.502;2022-09-02T05:25:27;9;;;4;;
6951;SDS011;3515;50.138;8.502;2022-09-02T05:27:53;11;;;5;;
6951;SDS011;3515;50.138;8.502;2022-09-02T05:30:18;12;;;5;;
6951;SDS011;3515;50.138;8.502;2022-09-02T05:32:44;12;;;6;;
6951;SDS011;3515;50.138;8.502;2022-09-02T05:35:09;12;;;6;;
6951;SDS011;3515;50.138;8.502;2022-09-02T05:37:34;13;;;6;;
6951;SDS011;3515;50.138;8.502;2022-09-02T05:39:59;16;;;8;;
6951;SDS011;3515;50.138;8.502;2022-09-02T05:42:25;14;;;7;;
6951;SDS011;3515;50.138;8.502;2022-09-02T05:44:50;17;;;8;;
6951;SDS011;3515;50.138;8.502;2022-09-02T05:47:15;14;;;7;;
6951;SDS011;3515;50.138;8.502;2022-09-02T05:49:41;16;;;8;;
6951;SDS011;3515;50.138;8.502;2022-09-02T05:52:06;14;;;7;;
6951;SDS011;3515;50.138;8.502;2022-09-02T05:54:32;16;;;9;;
6951;SDS011;3515;50.138;8.502;2022-09-02T05:56:58;17;;;9;;
6951;SDS011;3515;50.138;8.502;2022-09-02T05:59:23;14;;;8;;
6951;SDS011;3515;50.138;8.502;2022-09-02T06:01:48;16;;;9;;
6951;SDS011;3515;50.138;8.502;2022-09-02T06:04:13;17;;;9;;
6951;SDS011;3515;50.138;8.502;2022-09-02T06:06:39;17;;;10;;
6951;SDS011;3515;50.138;8.502;2022-09-02T06:09:10;18;;;10;;
6951;SDS011;3515;50.138;8.502;2022-09-02T06:11:34;21;;;12;;
6951;SDS011;3515;50.138;8.502;2022-09-02T06:13:59;19;;;11;;
6951;SDS011;3515;50.138;8.502;2022-09-02T06:16:26;19;;;11;;
6951;SDS011;3515;50.138;8.502;2022-09-02T06:18:51;19;;;11;;
6951;SDS011;3515;50.138;8.502;2022-09-02T06:21:16;17;;;9;;
6951;SDS011;3515;50.138;8.502;2022-09-02T06:23:42;13;;;7;;
6951;SDS011;3515;50.138;8.502;2022-09-02T06:26:08;16;;;9;;
6951;SDS011;3515;50.138;8.502;2022-09-02T06:28:33;14;;;7;;
6951;SDS011;3515;50.138;8.502;2022-09-02T06:30:58;11;;;5;;
6951;SDS011;3515;50.138;8.502;2022-09-02T06:33:23;15;;;7;;
6951;SDS011;3515;50.138;8.502;2022-09-02T06:35:48;12;;;6;;
6951;SDS011;3515;50.138;8.502;2022-09-02T06:38:14;16;;;8;;
6951;SDS011;3515;50.138;8.502;2022-09-02T06:40:45;17;;;9;;
6951;SDS011;3515;50.138;8.502;2022-09-02T06:43:04;22;;;11;;
6951;SDS011;3515;50.138;8.502;2022-09-02T06:45:30;20;;;11;;
6951;SDS011;3515;50.138;8.502;2022-09-02T06:47:55;25;;;13;;
6951;SDS011;3515;50.138;8.502;2022-09-02T06:50:20;26;;;15;;
6951;SDS011;3515;50.138;8.502;2022-09-02T06:52:45;23;;;14;;
6951;SDS011;3515;50.138;8.502;2022-09-02T06:55:11;28;;;16;;
6951;SDS011;3515;50.138;8.502;2022-09-02T06:57:36;30;;;17;;
6951;SDS011;3515;50.138;8.502;2022-09-02T07:00:03;31;;;18;;
6951;SDS011;3515;50.138;8.502;2022-09-02T07:02:27;32;;;18;;
6951;SDS011;3515;50.138;8.502;2022-09-02T07:04:52;33;;;19;;
6951;SDS011;3515;50.138;8.502;2022-09-02T07:07:17;30;;;17;;
6951;SDS011;3515;50.138;8.502;2022-09-02T07:09:49;30;;;17;;
6951;SDS011;3515;50.138;8.502;2022-09-02T07:12:13;31;;;17;;
6951;SDS011;3515;50.138;8.502;2022-09-02T07:14:39;28;;;15;;
6951;SDS011;3515;50.138;8.502;2022-09-02T07:17:03;25;;;14;;
6951;SDS011;3515;50.138;8.502;2022-09-02T07:19:29;26;;;14;;
6951;SDS011;3515;50.138;8.502;2022-09-02T07:21:54;25;;;14;;
6951;SDS011;3515;50.138;8.502;2022-09-02T07:24:19;27;;;15;;
6951;SDS011;3515;50.138;8.502;2022-09-02T07:26:44;31;;;16;;
6951;SDS011;3515;50.138;8.502;2022-09-02T07:29:10;34;;;18;;
6951;SDS011;3515;50.138;8.502;2022-09-02T07:31:35;35;;;18;;
6951;SDS011;3515;50.138;8.502;2022-09-02T07:34:00;36;;;20;;
6951;SDS011;3515;50.138;8.502;2022-09-02T07:36:26;39;;;21;;
6951;SDS011;3515;50.138;8.502;2022-09-02T07:38:56;41;;;22;;
6951;SDS011;3515;50.138;8.502;2022-09-02T07:41:21;43;;;23;;
6951;SDS011;3515;50.138;8.502;2022-09-02T07:43:46;43;;;23;;
6951;SDS011;3515;50.138;8.502;2022-09-02T07:46:11;45;;;24;;
6951;SDS011;3515;50.138;8.502;2022-09-02T07:48:37;46;;;25;;
6951;SDS011;3515;50.138;8.502;2022-09-02T07:51:02;49;;;27;;
6951;SDS011;3515;50.138;8.502;2022-09-02T07:53:27;57;;;28;;
6951;SDS011;3515;50.138;8.502;2022-09-02T07:55:52;58;;;28;;
6951;SDS011;3515;50.138;8.502;2022-09-02T07:58:19;60;;;29;;
6951;SDS011;3515;50.138;8.502;2022-09-02T08:00:43;61;;;29;;
6951;SDS011;3515;50.138;8.502;2022-09-02T08:03:09;63;;;30;;
6951;SDS011;3515;50.138;8.502;2022-09-02T08:05:34;64;;;30;;
6951;SDS011;3515;50.138;8.502;2022-09-02T08:07:59;65;;;30;;
6951;SDS011;3515;50.138;8.502;2022-09-02T08:10:29;65;;;31;;
6951;SDS011;3515;50.138;8.502;2022-09-02T08:12:55;60;;;30;;
6951;SDS011;3515;50.138;8.502;2022-09-02T08:15:19;60;;;30;;
6951;SDS011;3515;50.138;8.502;2022-09-02T08:17:45;60;;;30;;
6951;SDS011;3515;50.138;8.502;2022-09-02T08:20:10;60;;;30;;
6951;SDS011;3515;50.138;8.502;2022-09-02T08:22:35;60;;;30;;
6951;SDS011;3515;50.138;8.502;2022-09-02T08:25:00;59;;;30;;
6951;SDS011;3515;50.138;8.502;2022-09-02T08:27:26;57;;;30;;
6951;SDS011;3515;50.138;8.502;2022-09-02T08:29:51;57;;;29;;
6951;SDS011;3515;50.138;8.502;2022-09-02T08:32:16;56;;;29;;
6951;SDS011;3515;50.138;8.502;2022-09-02T08:34:41;56;;;29;;
6951;SDS011;3515;50.138;8.502;2022-09-02T08:37:06;59;;;29;;
6951;SDS011;3515;50.138;8.502;2022-09-02T08:39:32;59;;;29;;
6951;SDS011;3515;50.138;8.502;2022-09-02T08:42:01;52;;;26;;
6951;SDS011;3515;50.138;8.502;2022-09-02T08:44:22;46;;;22;;
6951;SDS011;3515;50.138;8.502;2022-09-02T08:46:48;40;;;19;;
6951;SDS011;3515;50.138;8.502;2022-09-02T08:49:15;34;;;16;;
6951;SDS011;3515;50.138;8.502;2022-09-02T08:51:40;29;;;13;;
6951;SDS011;3515;50.138;8.502;2022-09-02T08:54:05;22;;;10;;
6951;SDS011;3515;50.138;8.502;2022-09-02T08:56:29;13;;;7;;
6951;SDS011;3515;50.138;8.502;2022-09-02T08:58:54;7;;;4;;
6951;SDS011;3515;50.138;8.502;2022-09-02T09:01:28;7;;;4;;
6951;SDS011;3515;50.138;8.502;2022-09-02T09:03:57;8;;;4;;
6951;SDS011;3515;50.138;8.502;2022-09-02T09:06:16;9;;;5;;
6951;SDS011;3515;50.138;8.502;2022-09-02T09:08:43;11;;;6;;
6951;SDS011;3515;50.138;8.502;2022-09-02T09:11:11;11;;;7;;
6951;SDS011;3515;50.138;8.502;2022-09-02T09:13:44;13;;;8;;
6951;SDS011;3515;50.138;8.502;2022-09-02T09:16:03;15;;;9;;
6951;SDS011;3515;50.138;8.502;2022-09-02T09:18:28;16;;;10;;
6951;SDS011;3515;50.138;8.502;2022-09-02T09:20:51;19;;;11;;
6951;SDS011;3515;50.138;8.502;2022-09-02T09:23:22;26;;;14;;
6951;SDS011;3515;50.138;8.502;2022-09-02T09:25:42;31;;;17;;
6951;SDS011;3515;50.138;8.502;2022-09-02T09:28:07;36;;;20;;
6951;SDS011;3515;50.138;8.502;2022-09-02T09:30:32;41;;;22;;
6951;SDS011;3515;50.138;8.502;2022-09-02T09:32:58;44;;;24;;
6951;SDS011;3515;50.138;8.502;2022-09-02T09:35:23;50;;;26;;
6951;SDS011;3515;50.138;8.502;2022-09-02T09:37:48;53;;;28;;
6951;SDS011;3515;50.138;8.502;2022-09-02T09:40:23;56;;;29;;
6951;SDS011;3515;50.138;8.502;2022-09-02T09:42:39;54;;;29;;
6951;SDS011;3515;50.138;8.502;2022-09-02T09:45:14;53;;;28;;
6951;SDS011;3515;50.138;8.502;2022-09-02T09:47:29;53;;;28;;
6951;SDS011;3515;50.138;8.502;2022-09-02T09:52:22;54;;;29;;
6951;SDS011;3515;50.138;8.502;2022-09-02T09:54:45;54;;;29;;
6951;SDS011;3515;50.138;8.502;2022-09-02T09:57:13;55;;;30;;
6951;SDS011;3515;50.138;8.502;2022-09-02T09:59:38;55;;;30;;
6951;SDS011;3515;50.138;8.502;2022-09-02T10:02:01;55;;;29;;
6951;SDS011;3515;50.138;8.502;2022-09-02T10:04:27;58;;;29;;
6951;SDS011;3515;50.138;8.502;2022-09-02T10:06:51;59;;;29;;
6951;SDS011;3515;50.138;8.502;2022-09-02T10:09:27;63;;;29;;
6951;SDS011;3515;50.138;8.502;2022-09-02T10:11:53;65;;;29;;
6951;SDS011;3515;50.138;8.502;2022-09-02T10:14:12;67;;;29;;
6951;SDS011;3515;50.138;8.502;2022-09-02T10:16:45;70;;;29;;
6951;SDS011;3515;50.138;8.502;2022-09-02T10:19:05;71;;;29;;
6951;SDS011;3515;50.138;8.502;2022-09-02T10:21:35;72;;;30;;
6951;SDS011;3515;50.138;8.502;2022-09-02T10:24:01;68;;;30;;
6951;SDS011;3515;50.138;8.502;2022-09-02T10:26:24;67;;;30;;
6951;SDS011;3515;50.138;8.502;2022-09-02T10:29:01;63;;;30;;
6951;SDS011;3515;50.138;8.502;2022-09-02T10:31:16;63;;;30;;
6951;SDS011;3515;50.138;8.502;2022-09-02T10:33:44;61;;;30;;
6951;SDS011;3515;50.138;8.502;2022-09-02T10:36:05;58;;;29;;
6951;SDS011;3515;50.138;8.502;2022-09-02T10:38:32;58;;;29;;
6951;SDS011;3515;50.138;8.502;2022-09-02T10:40:56;57;;;29;;
6951;SDS011;3515;50.138;8.502;2022-09-02T10:43:23;55;;;28;;
6951;SDS011;3515;50.138;8.502;2022-09-02T10:45:45;53;;;27;;
6951;SDS011;3515;50.138;8.502;2022-09-02T10:48:14;52;;;27;;
6951;SDS011;3515;50.138;8.502;2022-09-02T10:50:38;50;;;27;;
6951;SDS011;3515;50.138;8.502;2022-09-02T10:53:10;49;;;26;;
6951;SDS011;3515;50.138;8.502;2022-09-02T10:55:29;46;;;26;;
6951;SDS011;3515;50.138;8.502;2022-09-02T10:57:53;44;;;25;;
6951;SDS011;3515;50.138;8.502;2022-09-02T11:00:17;42;;;25;;
6951;SDS011;3515;50.138;8.502;2022-09-02T11:02:44;42;;;24;;
6951;SDS011;3515;50.138;8.502;2022-09-02T11:05:10;43;;;25;;
6951;SDS011;3515;50.138;8.502;2022-09-02T11:07:39;43;;;25;;
6951;SDS011;3515;50.138;8.502;2022-09-02T11:09:58;44;;;25;;
6951;SDS011;3515;50.138;8.502;2022-09-02T11:12:28;45;;;26;;
6951;SDS011;3515;50.138;8.502;2022-09-02T11:14:58;48;;;26;;
6951;SDS011;3515;50.138;8.502;2022-09-02T11:17:19;51;;;27;;
6951;SDS011;3515;50.138;8.502;2022-09-02T11:19:45;52;;;28;;
6951;SDS011;3515;50.138;8.502;2022-09-02T11:22:12;54;;;29;;
6951;SDS011;3515;50.138;8.502;2022-09-02T11:24:35;56;;;29;;
6951;SDS011;3515;50.138;8.502;2022-09-02T11:27:02;57;;;30;;
6951;SDS011;3515;50.138;8.502;2022-09-02T11:29:29;57;;;30;;
6951;SDS011;3515;50.138;8.502;2022-09-02T11:31:50;56;;;30;;
6951;SDS011;3515;50.138;8.502;2022-09-02T11:34:17;55;;;29;;
6951;SDS011;3515;50.138;8.502;2022-09-02T11:36:40;54;;;29;;
6951;SDS011;3515;50.138;8.502;2022-09-02T11:39:07;54;;;29;;
6951;SDS011;3515;50.138;8.502;2022-09-02T11:41:34;53;;;29;;
6951;SDS011;3515;50.138;8.502;2022-09-02T11:43:59;52;;;28;;
6951;SDS011;3515;50.138;8.502;2022-09-02T11:46:35;50;;;28;;
6951;SDS011;3515;50.138;8.502;2022-09-02T11:48:50;49;;;27;;
6951;SDS011;3515;50.138;8.502;2022-09-02T11:51:23;48;;;27;;
6951;SDS011;3515;50.138;8.502;2022-09-02T11:53:37;49;;;26;;
6951;SDS011;3515;50.138;8.502;2022-09-02T11:56:03;47;;;25;;
6951;SDS011;3515;50.138;8.502;2022-09-02T11:58:31;45;;;25;;
6951;SDS011;3515;50.138;8.502;2022-09-02T12:01:04;43;;;24;;
6951;SDS011;3515;50.138;8.502;2022-09-02T12:03:19;42;;;23;;
6951;SDS011;3515;50.138;8.502;2022-09-02T12:05:46;44;;;24;;
6951;SDS011;3515;50.138;8.502;2022-09-02T12:08:09;46;;;24;;
6951;SDS011;3515;50.138;8.502;2022-09-02T12:13:07;46;;;26;;
6951;SDS011;3515;50.138;8.502;2022-09-02T12:15:24;48;;;26;;
6951;SDS011;3515;50.138;8.502;2022-09-02T12:22:40;53;;;28;;
6951;SDS011;3515;50.138;8.502;2022-09-02T12:27:32;49;;;26;;
6951;SDS011;3515;50.138;8.502;2022-09-02T12:29:56;46;;;25;;
6951;SDS011;3515;50.138;8.502;2022-09-02T12:34:51;41;;;22;;
6951;SDS011;3515;50.138;8.502;2022-09-02T12:39:50;36;;;20;;
6951;SDS011;3515;50.138;8.502;2022-09-02T12:42:02;33;;;19;;
6951;SDS011;3515;50.138;8.502;2022-09-02T12:44:27;32;;;18;;
6951;SDS011;3515;50.138;8.502;2022-09-02T12:47:03;30;;;17;;
6951;SDS011;3515;50.138;8.502;2022-09-02T12:49:24;28;;;16;;
6951;SDS011;3515;50.138;8.502;2022-09-02T12:51:51;31;;;18;;
6951;SDS011;3515;50.138;8.502;2022-09-02T12:54:08;30;;;18;;
6951;SDS011;3515;50.138;8.502;2022-09-02T12:56:34;31;;;17;;
6951;SDS011;3515;50.138;8.502;2022-09-02T12:58:59;30;;;17;;
6951;SDS011;3515;50.138;8.502;2022-09-02T13:01:32;29;;;17;;
6951;SDS011;3515;50.138;8.502;2022-09-02T13:04:02;29;;;17;;
6951;SDS011;3515;50.138;8.502;2022-09-02T13:06:22;29;;;17;;
6951;SDS011;3515;50.138;8.502;2022-09-02T13:08:55;31;;;18;;
6951;SDS011;3515;50.138;8.502;2022-09-02T13:16:04;26;;;16;;
6951;SDS011;3515;50.138;8.502;2022-09-02T13:20:55;27;;;16;;
6951;SDS011;3515;50.138;8.502;2022-09-02T13:25:45;26;;;16;;
6951;SDS011;3515;50.138;8.502;2022-09-02T13:28:17;30;;;16;;
6951;SDS011;3515;50.138;8.502;2022-09-02T13:30:40;32;;;16;;
6951;SDS011;3515;50.138;8.502;2022-09-02T13:32:59;31;;;15;;
6951;SDS011;3515;50.138;8.502;2022-09-02T13:35:23;31;;;15;;
6951;SDS011;3515;50.138;8.502;2022-09-02T13:37:52;31;;;15;;
6951;SDS011;3515;50.138;8.502;2022-09-02T13:40:16;31;;;15;;
6951;SDS011;3515;50.138;8.502;2022-09-02T13:42:37;31;;;15;;
6951;SDS011;3515;50.138;8.502;2022-09-02T13:45:11;35;;;17;;
6951;SDS011;3515;50.138;8.502;2022-09-02T13:47:28;32;;;17;;
6951;SDS011;3515;50.138;8.502;2022-09-02T13:49:53;30;;;17;;
6951;SDS011;3515;50.138;8.502;2022-09-02T13:52:19;30;;;17;;
6951;SDS011;3515;50.138;8.502;2022-09-02T13:54:44;30;;;17;;
6951;SDS011;3515;50.138;8.502;2022-09-02T13:57:10;30;;;17;;
6951;SDS011;3515;50.138;8.502;2022-09-02T13:59:35;34;;;19;;
6951;SDS011;3515;50.138;8.502;2022-09-02T14:04:25;31;;;18;;
6951;SDS011;3515;50.138;8.502;2022-09-02T14:06:50;30;;;18;;
6951;SDS011;3515;50.138;8.502;2022-09-02T14:09:17;30;;;18;;
6951;SDS011;3515;50.138;8.502;2022-09-02T14:11:41;30;;;18;;
6951;SDS011;3515;50.138;8.502;2022-09-02T14:14:06;30;;;18;;
6951;SDS011;3515;50.138;8.502;2022-09-02T14:16:32;30;;;18;;
6951;SDS011;3515;50.138;8.502;2022-09-02T14:19:06;29;;;18;;
6951;SDS011;3515;50.138;8.502;2022-09-02T14:21:22;30;;;18;;
6951;SDS011;3515;50.138;8.502;2022-09-02T14:23:48;30;;;18;;
6951;SDS011;3515;50.138;8.502;2022-09-02T14:26:12;30;;;18;;
6951;SDS011;3515;50.138;8.502;2022-09-02T14:28:37;29;;;18;;
6951;SDS011;3515;50.138;8.502;2022-09-02T14:31:03;30;;;18;;
6951;SDS011;3515;50.138;8.502;2022-09-02T14:33:37;30;;;18;;
6951;SDS011;3515;50.138;8.502;2022-09-02T14:35:55;29;;;18;;
6951;SDS011;3515;50.138;8.502;2022-09-02T14:38:21;26;;;16;;
6951;SDS011;3515;50.138;8.502;2022-09-02T14:40:44;25;;;16;;
6951;SDS011;3515;50.138;8.502;2022-09-02T14:43:10;25;;;16;;
6951;SDS011;3515;50.138;8.502;2022-09-02T14:45:34;26;;;16;;
6951;SDS011;3515;50.138;8.502;2022-09-02T14:48:00;26;;;16;;
6951;SDS011;3515;50.138;8.502;2022-09-02T14:50:26;27;;;16;;
6951;SDS011;3515;50.138;8.502;2022-09-02T14:52:51;31;;;18;;
6951;SDS011;3515;50.138;8.502;2022-09-02T14:57:41;33;;;19;;
6951;SDS011;3515;50.138;8.502;2022-09-02T15:00:07;34;;;20;;
6951;SDS011;3515;50.138;8.502;2022-09-02T15:02:32;37;;;20;;
6951;SDS011;3515;50.138;8.502;2022-09-02T15:04:58;38;;;19;;
6951;SDS011;3515;50.138;8.502;2022-09-02T15:07:23;42;;;19;;
6951;SDS011;3515;50.138;8.502;2022-09-02T15:09:48;42;;;19;;
6951;SDS011;3515;50.138;8.502;2022-09-02T15:12:13;38;;;17;;
6951;SDS011;3515;50.138;8.502;2022-09-02T15:14:38;38;;;17;;
6951;SDS011;3515;50.138;8.502;2022-09-02T15:17:04;36;;;16;;
6951;SDS011;3515;50.138;8.502;2022-09-02T15:19:29;36;;;15;;
6951;SDS011;3515;50.138;8.502;2022-09-02T15:21:54;33;;;15;;
6951;SDS011;3515;50.138;8.502;2022-09-02T15:24:19;31;;;15;;
6951;SDS011;3515;50.138;8.502;2022-09-02T15:26:45;26;;;15;;
6951;SDS011;3515;50.138;8.502;2022-09-02T15:29:10;25;;;15;;
6951;SDS011;3515;50.138;8.502;2022-09-02T15:31:35;24;;;15;;
6951;SDS011;3515;50.138;8.502;2022-09-02T15:34:00;24;;;15;;
6951;SDS011;3515;50.138;8.502;2022-09-02T15:36:25;25;;;15;;
6951;SDS011;3515;50.138;8.502;2022-09-02T15:38:51;26;;;16;;
6951;SDS011;3515;50.138;8.502;2022-09-02T15:41:17;26;;;16;;
6951;SDS011;3515;50.138;8.502;2022-09-02T15:43:41;26;;;16;;
6951;SDS011;3515;50.138;8.502;2022-09-02T15:46:15;27;;;16;;
6951;SDS011;3515;50.138;8.502;2022-09-02T15:48:32;28;;;17;;
6951;SDS011;3515;50.138;8.502;2022-09-02T15:50:57;28;;;16;;
6951;SDS011;3515;50.138;8.502;2022-09-02T15:53:22;28;;;16;;
6951;SDS011;3515;50.138;8.502;2022-09-02T15:55:48;26;;;16;;
6951;SDS011;3515;50.138;8.502;2022-09-02T15:58:13;25;;;16;;
6951;SDS011;3515;50.138;8.502;2022-09-02T16:00:38;25;;;15;;
6951;SDS011;3515;50.138;8.502;2022-09-02T16:03:03;24;;;15;;
6951;SDS011;3515;50.138;8.502;2022-09-02T16:05:29;24;;;15;;
6951;SDS011;3515;50.138;8.502;2022-09-02T16:07:54;23;;;14;;
6951;SDS011;3515;50.138;8.502;2022-09-02T16:10:19;22;;;14;;
6951;SDS011;3515;50.138;8.502;2022-09-02T16:12:44;22;;;14;;
6951;SDS011;3515;50.138;8.502;2022-09-02T16:15:10;22;;;14;;
6951;SDS011;3515;50.138;8.502;2022-09-02T16:17:35;23;;;14;;
6951;SDS011;3515;50.138;8.502;2022-09-02T16:20:00;23;;;14;;
6951;SDS011;3515;50.138;8.502;2022-09-02T16:22:25;23;;;14;;
6951;SDS011;3515;50.138;8.502;2022-09-02T16:24:50;23;;;15;;
6951;SDS011;3515;50.138;8.502;2022-09-02T16:27:16;25;;;15;;
6951;SDS011;3515;50.138;8.502;2022-09-02T16:29:41;26;;;16;;
6951;SDS011;3515;50.138;8.502;2022-09-02T16:32:06;27;;;17;;
6951;SDS011;3515;50.138;8.502;2022-09-02T16:34:31;29;;;18;;
6951;SDS011;3515;50.138;8.502;2022-09-02T16:36:57;30;;;18;;
6951;SDS011;3515;50.138;8.502;2022-09-02T16:39:22;31;;;19;;
6951;SDS011;3515;50.138;8.502;2022-09-02T16:41:48;33;;;20;;
6951;SDS011;3515;50.138;8.502;2022-09-02T16:44:13;34;;;21;;